sensor_id;sensor_type;location;lat;lon;timestamp;pressure;altitude;pressure_sealevel;temperature;humidity
80139;BME280;69467;59.842;17.604;2023-05-10T00:01:54;101590.81;;;8.74;52.14
80139;BME280;69467;59.842;17.604;2023-05-10T00:04:20;101592.31;;;8.70;52.28
80139;BME280;69467;59.842;17.604;2023-05-10T00:06:45;101594.44;;;8.68;52.25
80139;BME280;69467;59.842;17.604;2023-05-10T00:09:11;101587.06;;;8.68;52.32
80139;BME280;69467;59.842;17.604;2023-05-10T00:11:36;101592.97;;;8.65;52.21
80139;BME280;69467;59.842;17.604;2023-05-10T00:14:02;101594.50;;;8.61;52.27
80139;BME280;69467;59.842;17.604;2023-05-10T00:16:27;101600.81;;;8.62;52.33
80139;BME280;69467;59.842;17.604;2023-05-10T00:18:53;101602.09;;;8.59;52.44
80139;BME280;69467;59.842;17.604;2023-05-10T00:21:18;101591.63;;;8.56;52.33
80139;BME280;69467;59.842;17.604;2023-05-10T00:23:43;101598.53;;;8.59;52.29
80139;BME280;69467;59.842;17.604;2023-05-10T00:26:09;101610.34;;;8.52;52.41
80139;BME280;69467;59.842;17.604;2023-05-10T00:28:35;101595.91;;;8.45;52.38
80139;BME280;69467;59.842;17.604;2023-05-10T00:31:00;101600.09;;;8.48;52.41
80139;BME280;69467;59.842;17.604;2023-05-10T00:33:25;101604.56;;;8.42;52.55
80139;BME280;69467;59.842;17.604;2023-05-10T00:35:51;101603.31;;;8.38;52.82
80139;BME280;69467;59.842;17.604;2023-05-10T00:38:16;101598.34;;;8.35;52.80
80139;BME280;69467;59.842;17.604;2023-05-10T00:40:42;101604.03;;;8.33;52.93
80139;BME280;69467;59.842;17.604;2023-05-10T00:43:08;101603.41;;;8.31;53.10
80139;BME280;69467;59.842;17.604;2023-05-10T00:45:34;101607.19;;;8.30;53.13
80139;BME280;69467;59.842;17.604;2023-05-10T00:48:02;101612.25;;;8.27;53.19
80139;BME280;69467;59.842;17.604;2023-05-10T00:50:27;101617.34;;;8.23;53.59
80139;BME280;69467;59.842;17.604;2023-05-10T00:52:54;101610.19;;;8.22;53.56
80139;BME280;69467;59.842;17.604;2023-05-10T00:55:20;101611.94;;;8.16;53.74
80139;BME280;69467;59.842;17.604;2023-05-10T00:57:46;101608.16;;;8.17;53.67
80139;BME280;69467;59.842;17.604;2023-05-10T01:00:12;101604.81;;;8.15;53.99
80139;BME280;69467;59.842;17.604;2023-05-10T01:02:43;101606.50;;;8.16;53.97
80139;BME280;69467;59.842;17.604;2023-05-10T01:05:09;101605.72;;;8.09;54.66
80139;BME280;69467;59.842;17.604;2023-05-10T01:07:34;101594.81;;;8.09;54.29
80139;BME280;69467;59.842;17.604;2023-05-10T01:09:59;101600.69;;;8.06;54.53
80139;BME280;69467;59.842;17.604;2023-05-10T01:12:25;101606.59;;;8.03;55.02
80139;BME280;69467;59.842;17.604;2023-05-10T01:14:51;101605.16;;;8.00;54.85
80139;BME280;69467;59.842;17.604;2023-05-10T01:17:17;101612.94;;;7.97;55.14
80139;BME280;69467;59.842;17.604;2023-05-10T01:19:42;101604.78;;;7.97;54.93
80139;BME280;69467;59.842;17.604;2023-05-10T01:25:07;101608.78;;;7.94;55.28
80139;BME280;69467;59.842;17.604;2023-05-10T01:27:57;101600.44;;;7.89;55.76
80139;BME280;69467;59.842;17.604;2023-05-10T01:34:00;101603.81;;;7.84;56.10
80139;BME280;69467;59.842;17.604;2023-05-10T01:36:30;101602.78;;;7.85;55.92
80139;BME280;69467;59.842;17.604;2023-05-10T01:39:20;101604.25;;;7.81;56.39
80139;BME280;69467;59.842;17.604;2023-05-10T01:41:54;101609.53;;;7.76;56.65
80139;BME280;69467;59.842;17.604;2023-05-10T01:44:34;101608.25;;;7.79;56.65
80139;BME280;69467;59.842;17.604;2023-05-10T01:47:05;101607.22;;;7.80;56.23
80139;BME280;69467;59.842;17.604;2023-05-10T01:49:34;101606.81;;;7.76;56.28
80139;BME280;69467;59.842;17.604;2023-05-10T01:52:09;101603.03;;;7.77;56.85
80139;BME280;69467;59.842;17.604;2023-05-10T01:54:41;101609.38;;;7.71;57.13
80139;BME280;69467;59.842;17.604;2023-05-10T01:57:09;101607.31;;;7.66;57.04
80139;BME280;69467;59.842;17.604;2023-05-10T01:59:40;101605.84;;;7.64;57.42
80139;BME280;69467;59.842;17.604;2023-05-10T02:02:09;101609.84;;;7.61;57.58
80139;BME280;69467;59.842;17.604;2023-05-10T02:04:38;101610.28;;;7.58;57.96
80139;BME280;69467;59.842;17.604;2023-05-10T02:07:05;101610.09;;;7.60;57.92
80139;BME280;69467;59.842;17.604;2023-05-10T02:09:32;101607.97;;;7.62;57.72
80139;BME280;69467;59.842;17.604;2023-05-10T02:12:00;101609.72;;;7.49;59.00
80139;BME280;69467;59.842;17.604;2023-05-10T02:14:29;101614.97;;;7.51;58.78
80139;BME280;69467;59.842;17.604;2023-05-10T02:16:56;101607.44;;;7.46;59.20
80139;BME280;69467;59.842;17.604;2023-05-10T02:19:23;101613.13;;;7.45;59.54
80139;BME280;69467;59.842;17.604;2023-05-10T02:21:50;101619.63;;;7.44;59.84
80139;BME280;69467;59.842;17.604;2023-05-10T02:24:17;101618.19;;;7.41;60.00
80139;BME280;69467;59.842;17.604;2023-05-10T02:26:45;101618.78;;;7.43;60.01
80139;BME280;69467;59.842;17.604;2023-05-10T02:29:13;101614.81;;;7.39;60.13
80139;BME280;69467;59.842;17.604;2023-05-10T02:31:39;101616.91;;;7.37;60.68
80139;BME280;69467;59.842;17.604;2023-05-10T02:34:08;101617.59;;;7.32;60.81
80139;BME280;69467;59.842;17.604;2023-05-10T02:36:36;101615.06;;;7.31;61.30
80139;BME280;69467;59.842;17.604;2023-05-10T02:39:03;101617.19;;;7.29;60.54
80139;BME280;69467;59.842;17.604;2023-05-10T02:41:31;101615.75;;;7.26;61.14
80139;BME280;69467;59.842;17.604;2023-05-10T02:43:59;101616.00;;;7.18;60.97
80139;BME280;69467;59.842;17.604;2023-05-10T02:46:27;101614.50;;;7.22;60.48
80139;BME280;69467;59.842;17.604;2023-05-10T02:48:53;101622.25;;;7.25;60.47
80139;BME280;69467;59.842;17.604;2023-05-10T02:51:20;101625.16;;;7.23;60.65
80139;BME280;69467;59.842;17.604;2023-05-10T02:53:50;101626.00;;;7.24;60.54
80139;BME280;69467;59.842;17.604;2023-05-10T02:56:27;101617.38;;;7.27;60.75
80139;BME280;69467;59.842;17.604;2023-05-10T02:58:54;101625.38;;;7.29;60.36
80139;BME280;69467;59.842;17.604;2023-05-10T03:01:20;101621.59;;;7.30;59.95
80139;BME280;69467;59.842;17.604;2023-05-10T03:03:45;101620.75;;;7.29;60.50
80139;BME280;69467;59.842;17.604;2023-05-10T03:06:11;101621.38;;;7.31;60.34
80139;BME280;69467;59.842;17.604;2023-05-10T03:08:36;101623.69;;;7.28;60.87
80139;BME280;69467;59.842;17.604;2023-05-10T03:16:35;101616.16;;;7.30;60.92
80139;BME280;69467;59.842;17.604;2023-05-10T03:19:17;101625.38;;;7.29;61.16
80139;BME280;69467;59.842;17.604;2023-05-10T03:21:50;101630.59;;;7.30;60.83
80139;BME280;69467;59.842;17.604;2023-05-10T03:24:18;101621.16;;;7.33;60.89
80139;BME280;69467;59.842;17.604;2023-05-10T03:26:45;101625.09;;;7.37;60.20
80139;BME280;69467;59.842;17.604;2023-05-10T03:29:12;101626.78;;;7.38;60.32
80139;BME280;69467;59.842;17.604;2023-05-10T03:31:39;101626.78;;;7.38;60.76
80139;BME280;69467;59.842;17.604;2023-05-10T03:34:04;101629.91;;;7.41;60.26
80139;BME280;69467;59.842;17.604;2023-05-10T03:36:30;101631.81;;;7.41;61.07
80139;BME280;69467;59.842;17.604;2023-05-10T03:38:55;101628.63;;;7.44;60.84
80139;BME280;69467;59.842;17.604;2023-05-10T03:41:21;101633.81;;;7.52;60.58
80139;BME280;69467;59.842;17.604;2023-05-10T03:43:46;101627.53;;;7.52;61.36
80139;BME280;69467;59.842;17.604;2023-05-10T03:46:11;101633.38;;;7.55;61.42
80139;BME280;69467;59.842;17.604;2023-05-10T03:48:37;101625.00;;;7.57;61.11
80139;BME280;69467;59.842;17.604;2023-05-10T03:51:02;101632.94;;;7.58;61.29
80139;BME280;69467;59.842;17.604;2023-05-10T03:53:28;101633.13;;;7.64;61.20
80139;BME280;69467;59.842;17.604;2023-05-10T03:55:53;101635.84;;;7.64;61.54
80139;BME280;69467;59.842;17.604;2023-05-10T03:58:18;101632.25;;;7.70;61.15
80139;BME280;69467;59.842;17.604;2023-05-10T04:00:44;101634.16;;;7.69;61.23
80139;BME280;69467;59.842;17.604;2023-05-10T04:03:14;101635.97;;;7.76;60.54
80139;BME280;69467;59.842;17.604;2023-05-10T04:05:39;101635.31;;;7.80;60.13
80139;BME280;69467;59.842;17.604;2023-05-10T04:08:05;101627.50;;;7.84;59.90
80139;BME280;69467;59.842;17.604;2023-05-10T04:10:30;101632.47;;;7.94;59.40
80139;BME280;69467;59.842;17.604;2023-05-10T04:12:56;101633.91;;;7.96;59.18
80139;BME280;69467;59.842;17.604;2023-05-10T04:15:21;101628.44;;;8.03;59.03
80139;BME280;69467;59.842;17.604;2023-05-10T04:17:47;101629.66;;;8.07;58.76
80139;BME280;69467;59.842;17.604;2023-05-10T04:20:13;101628.75;;;8.13;58.42
80139;BME280;69467;59.842;17.604;2023-05-10T04:22:38;101632.94;;;8.16;58.54
80139;BME280;69467;59.842;17.604;2023-05-10T04:25:04;101633.31;;;8.19;58.28
80139;BME280;69467;59.842;17.604;2023-05-10T04:27:30;101637.28;;;8.24;58.34
80139;BME280;69467;59.842;17.604;2023-05-10T04:29:56;101640.59;;;8.26;57.76
80139;BME280;69467;59.842;17.604;2023-05-10T04:32:21;101642.44;;;8.32;57.54
80139;BME280;69467;59.842;17.604;2023-05-10T04:34:47;101634.41;;;8.37;57.05
80139;BME280;69467;59.842;17.604;2023-05-10T04:37:12;101630.78;;;8.43;57.11
80139;BME280;69467;59.842;17.604;2023-05-10T04:39:38;101632.25;;;8.46;57.25
80139;BME280;69467;59.842;17.604;2023-05-10T04:42:03;101631.59;;;8.50;57.03
80139;BME280;69467;59.842;17.604;2023-05-10T04:44:31;101638.03;;;8.56;56.48
80139;BME280;69467;59.842;17.604;2023-05-10T04:46:56;101639.06;;;8.62;56.75
80139;BME280;69467;59.842;17.604;2023-05-10T04:49:22;101640.88;;;8.68;56.60
80139;BME280;69467;59.842;17.604;2023-05-10T04:51:48;101637.69;;;8.71;56.38
80139;BME280;69467;59.842;17.604;2023-05-10T04:54:13;101636.75;;;8.77;56.29
80139;BME280;69467;59.842;17.604;2023-05-10T04:56:38;101629.34;;;8.84;56.02
80139;BME280;69467;59.842;17.604;2023-05-10T04:59:04;101641.03;;;8.92;55.96
80139;BME280;69467;59.842;17.604;2023-05-10T05:01:29;101635.03;;;9.01;55.70
80139;BME280;69467;59.842;17.604;2023-05-10T05:03:55;101641.44;;;9.07;55.56
80139;BME280;69467;59.842;17.604;2023-05-10T05:06:20;101642.69;;;9.11;55.61
80139;BME280;69467;59.842;17.604;2023-05-10T05:08:49;101636.06;;;9.19;55.32
80139;BME280;69467;59.842;17.604;2023-05-10T05:11:15;101643.56;;;9.24;55.35
80139;BME280;69467;59.842;17.604;2023-05-10T05:13:41;101643.22;;;9.32;54.84
80139;BME280;69467;59.842;17.604;2023-05-10T05:16:06;101645.03;;;9.38;54.97
80139;BME280;69467;59.842;17.604;2023-05-10T05:18:32;101647.69;;;9.45;54.40
80139;BME280;69467;59.842;17.604;2023-05-10T05:20:57;101642.38;;;9.50;54.39
80139;BME280;69467;59.842;17.604;2023-05-10T05:23:22;101643.34;;;9.56;54.05
80139;BME280;69467;59.842;17.604;2023-05-10T05:25:51;101647.16;;;9.66;54.14
80139;BME280;69467;59.842;17.604;2023-05-10T05:28:17;101642.81;;;9.77;53.75
80139;BME280;69467;59.842;17.604;2023-05-10T05:30:43;101644.34;;;9.85;53.39
80139;BME280;69467;59.842;17.604;2023-05-10T05:33:08;101640.94;;;9.90;53.70
80139;BME280;69467;59.842;17.604;2023-05-10T05:35:34;101643.94;;;10.00;53.18
80139;BME280;69467;59.842;17.604;2023-05-10T05:37:59;101641.44;;;10.10;53.51
80139;BME280;69467;59.842;17.604;2023-05-10T05:40:24;101637.50;;;10.18;53.29
80139;BME280;69467;59.842;17.604;2023-05-10T05:42:50;101637.88;;;10.22;52.84
80139;BME280;69467;59.842;17.604;2023-05-10T05:45:15;101645.25;;;10.33;52.24
80139;BME280;69467;59.842;17.604;2023-05-10T05:47:41;101635.56;;;10.37;52.27
80139;BME280;69467;59.842;17.604;2023-05-10T05:50:07;101643.50;;;10.62;52.19
80139;BME280;69467;59.842;17.604;2023-05-10T05:52:32;101653.09;;;10.89;51.37
80139;BME280;69467;59.842;17.604;2023-05-10T05:54:57;101653.81;;;10.96;51.18
80139;BME280;69467;59.842;17.604;2023-05-10T05:57:23;101645.38;;;11.26;52.11
80139;BME280;69467;59.842;17.604;2023-05-10T05:59:48;101651.81;;;11.32;50.07
80139;BME280;69467;59.842;17.604;2023-05-10T06:02:14;101648.47;;;11.30;49.73
80139;BME280;69467;59.842;17.604;2023-05-10T06:04:39;101652.47;;;11.39;50.16
80139;BME280;69467;59.842;17.604;2023-05-10T06:07:05;101651.84;;;11.49;49.01
80139;BME280;69467;59.842;17.604;2023-05-10T06:09:30;101642.06;;;11.70;49.92
80139;BME280;69467;59.842;17.604;2023-05-10T06:11:56;101642.41;;;11.74;48.70
80139;BME280;69467;59.842;17.604;2023-05-10T06:14:22;101649.91;;;11.79;49.05
80139;BME280;69467;59.842;17.604;2023-05-10T06:16:47;101641.09;;;11.76;48.65
80139;BME280;69467;59.842;17.604;2023-05-10T06:19:13;101649.78;;;11.85;48.72
80139;BME280;69467;59.842;17.604;2023-05-10T06:21:38;101656.69;;;11.88;48.21
80139;BME280;69467;59.842;17.604;2023-05-10T06:24:04;101646.03;;;11.91;47.84
80139;BME280;69467;59.842;17.604;2023-05-10T06:26:30;101640.66;;;11.97;48.90
80139;BME280;69467;59.842;17.604;2023-05-10T06:28:56;101655.41;;;12.07;47.97
80139;BME280;69467;59.842;17.604;2023-05-10T06:31:21;101641.47;;;12.14;47.89
80139;BME280;69467;59.842;17.604;2023-05-10T06:33:47;101640.75;;;12.19;47.96
80139;BME280;69467;59.842;17.604;2023-05-10T06:36:12;101641.75;;;12.30;47.66
80139;BME280;69467;59.842;17.604;2023-05-10T06:38:38;101645.63;;;12.34;47.56
80139;BME280;69467;59.842;17.604;2023-05-10T06:41:04;101647.72;;;12.44;47.21
80139;BME280;69467;59.842;17.604;2023-05-10T06:43:29;101651.44;;;12.54;47.17
80139;BME280;69467;59.842;17.604;2023-05-10T06:45:55;101653.56;;;12.69;46.73
80139;BME280;69467;59.842;17.604;2023-05-10T06:48:21;101655.94;;;12.61;46.04
80139;BME280;69467;59.842;17.604;2023-05-10T06:50:46;101651.72;;;12.75;45.64
80139;BME280;69467;59.842;17.604;2023-05-10T06:53:11;101645.47;;;12.80;45.92
80139;BME280;69467;59.842;17.604;2023-05-10T06:55:37;101652.69;;;12.86;44.61
80139;BME280;69467;59.842;17.604;2023-05-10T06:58:02;101650.31;;;12.95;44.76
80139;BME280;69467;59.842;17.604;2023-05-10T07:00:28;101651.09;;;12.90;45.06
80139;BME280;69467;59.842;17.604;2023-05-10T07:02:53;101651.88;;;13.08;44.59
80139;BME280;69467;59.842;17.604;2023-05-10T07:05:19;101656.59;;;13.12;44.29
80139;BME280;69467;59.842;17.604;2023-05-10T07:07:45;101645.78;;;13.28;44.43
80139;BME280;69467;59.842;17.604;2023-05-10T07:10:10;101649.31;;;13.45;43.77
80139;BME280;69467;59.842;17.604;2023-05-10T07:12:36;101642.50;;;13.53;43.20
80139;BME280;69467;59.842;17.604;2023-05-10T07:15:01;101647.84;;;13.65;44.16
80139;BME280;69467;59.842;17.604;2023-05-10T07:17:27;101639.59;;;13.65;43.36
80139;BME280;69467;59.842;17.604;2023-05-10T07:19:52;101634.06;;;13.92;43.64
80139;BME280;69467;59.842;17.604;2023-05-10T07:22:18;101634.41;;;14.01;42.68
80139;BME280;69467;59.842;17.604;2023-05-10T07:24:44;101642.59;;;13.91;42.83
80139;BME280;69467;59.842;17.604;2023-05-10T07:27:09;101639.88;;;13.96;41.54
80139;BME280;69467;59.842;17.604;2023-05-10T07:29:35;101636.31;;;13.95;41.65
80139;BME280;69467;59.842;17.604;2023-05-10T07:32:01;101643.22;;;13.98;42.63
80139;BME280;69467;59.842;17.604;2023-05-10T07:34:26;101641.50;;;14.29;42.19
80139;BME280;69467;59.842;17.604;2023-05-10T07:36:52;101645.47;;;14.44;40.69
80139;BME280;69467;59.842;17.604;2023-05-10T07:39:17;101645.59;;;14.59;40.57
80139;BME280;69467;59.842;17.604;2023-05-10T07:41:43;101648.38;;;14.64;41.31
80139;BME280;69467;59.842;17.604;2023-05-10T07:44:08;101654.41;;;14.61;39.70
80139;BME280;69467;59.842;17.604;2023-05-10T07:46:34;101648.47;;;14.80;39.77
80139;BME280;69467;59.842;17.604;2023-05-10T07:48:59;101648.59;;;15.06;40.80
80139;BME280;69467;59.842;17.604;2023-05-10T07:51:25;101656.63;;;15.12;39.23
80139;BME280;69467;59.842;17.604;2023-05-10T07:53:50;101655.72;;;14.96;39.88
80139;BME280;69467;59.842;17.604;2023-05-10T07:56:34;101658.91;;;15.36;39.27
80139;BME280;69467;59.842;17.604;2023-05-10T07:59:00;101658.34;;;15.39;38.16
80139;BME280;69467;59.842;17.604;2023-05-10T08:01:26;101652.06;;;15.59;39.28
80139;BME280;69467;59.842;17.604;2023-05-10T08:03:55;101656.78;;;15.80;37.61
80139;BME280;69467;59.842;17.604;2023-05-10T08:06:20;101661.81;;;15.88;37.23
80139;BME280;69467;59.842;17.604;2023-05-10T08:08:46;101657.66;;;16.01;36.86
80139;BME280;69467;59.842;17.604;2023-05-10T08:11:15;101653.25;;;15.89;36.76
80139;BME280;69467;59.842;17.604;2023-05-10T08:13:41;101658.75;;;16.25;36.50
80139;BME280;69467;59.842;17.604;2023-05-10T08:16:07;101664.03;;;16.06;36.19
80139;BME280;69467;59.842;17.604;2023-05-10T08:18:32;101658.19;;;16.44;35.47
80139;BME280;69467;59.842;17.604;2023-05-10T08:20:57;101669.25;;;16.39;36.04
80139;BME280;69467;59.842;17.604;2023-05-10T08:23:23;101662.59;;;16.45;35.98
80139;BME280;69467;59.842;17.604;2023-05-10T08:25:48;101663.13;;;16.57;36.37
80139;BME280;69467;59.842;17.604;2023-05-10T08:28:13;101661.16;;;16.79;35.84
80139;BME280;69467;59.842;17.604;2023-05-10T08:30:39;101661.41;;;16.98;35.02
80139;BME280;69467;59.842;17.604;2023-05-10T08:33:04;101664.06;;;17.18;34.90
80139;BME280;69467;59.842;17.604;2023-05-10T08:35:30;101656.84;;;17.28;33.91
80139;BME280;69467;59.842;17.604;2023-05-10T08:37:56;101662.44;;;17.12;33.59
80139;BME280;69467;59.842;17.604;2023-05-10T08:40:23;101658.34;;;17.54;34.10
80139;BME280;69467;59.842;17.604;2023-05-10T08:43:05;101659.19;;;17.95;33.29
80139;BME280;69467;59.842;17.604;2023-05-10T08:45:33;101655.16;;;17.77;32.78
80139;BME280;69467;59.842;17.604;2023-05-10T08:48:01;101652.25;;;17.92;32.28
80139;BME280;69467;59.842;17.604;2023-05-10T08:50:27;101657.44;;;18.09;32.67
80139;BME280;69467;59.842;17.604;2023-05-10T08:52:52;101657.13;;;18.11;32.66
80139;BME280;69467;59.842;17.604;2023-05-10T08:55:20;101645.31;;;18.59;33.05
80139;BME280;69467;59.842;17.604;2023-05-10T08:57:48;101650.50;;;18.90;31.24
80139;BME280;69467;59.842;17.604;2023-05-10T09:00:14;101653.41;;;18.79;29.58
80139;BME280;69467;59.842;17.604;2023-05-10T09:02:40;101666.78;;;18.48;28.49
80139;BME280;69467;59.842;17.604;2023-05-10T09:05:07;101666.19;;;18.51;27.71
80139;BME280;69467;59.842;17.604;2023-05-10T09:07:33;101658.59;;;18.03;28.68
80139;BME280;69467;59.842;17.604;2023-05-10T09:09:58;101635.69;;;18.22;28.86
80139;BME280;69467;59.842;17.604;2023-05-10T09:12:24;101671.56;;;18.42;29.20
80139;BME280;69467;59.842;17.604;2023-05-10T09:14:50;101667.50;;;18.59;26.54
80139;BME280;69467;59.842;17.604;2023-05-10T09:17:17;101671.00;;;18.40;28.81
80139;BME280;69467;59.842;17.604;2023-05-10T09:19:42;101651.28;;;18.42;27.36
80139;BME280;69467;59.842;17.604;2023-05-10T09:22:07;101668.56;;;18.63;26.47
80139;BME280;69467;59.842;17.604;2023-05-10T09:24:33;101657.59;;;18.77;26.49
80139;BME280;69467;59.842;17.604;2023-05-10T09:26:58;101663.50;;;18.70;26.56
80139;BME280;69467;59.842;17.604;2023-05-10T09:29:24;101655.22;;;18.65;26.61
80139;BME280;69467;59.842;17.604;2023-05-10T09:31:50;101656.59;;;18.67;27.11
80139;BME280;69467;59.842;17.604;2023-05-10T09:34:22;101657.06;;;18.75;26.84
80139;BME280;69467;59.842;17.604;2023-05-10T09:36:58;101643.19;;;18.75;26.86
80139;BME280;69467;59.842;17.604;2023-05-10T09:39:35;101654.03;;;19.20;26.24
80139;BME280;69467;59.842;17.604;2023-05-10T09:42:07;101643.28;;;18.89;26.30
80139;BME280;69467;59.842;17.604;2023-05-10T09:44:34;101652.81;;;18.82;26.60
80139;BME280;69467;59.842;17.604;2023-05-10T09:47:03;101672.00;;;18.55;25.74
80139;BME280;69467;59.842;17.604;2023-05-10T09:49:29;101660.22;;;18.63;26.31
80139;BME280;69467;59.842;17.604;2023-05-10T09:52:07;101689.88;;;18.38;26.50
80139;BME280;69467;59.842;17.604;2023-05-10T09:54:34;101655.53;;;18.05;26.73
80139;BME280;69467;59.842;17.604;2023-05-10T09:57:00;101656.09;;;18.60;26.98
80139;BME280;69467;59.842;17.604;2023-05-10T09:59:27;101659.34;;;18.97;26.55
80139;BME280;69467;59.842;17.604;2023-05-10T10:01:57;101635.56;;;19.10;26.49
80139;BME280;69467;59.842;17.604;2023-05-10T10:04:23;101663.84;;;19.36;26.50
80139;BME280;69467;59.842;17.604;2023-05-10T10:06:58;101652.53;;;19.08;27.11
80139;BME280;69467;59.842;17.604;2023-05-10T10:09:25;101663.38;;;19.29;26.97
80139;BME280;69467;59.842;17.604;2023-05-10T10:11:51;101649.56;;;19.24;26.42
80139;BME280;69467;59.842;17.604;2023-05-10T10:14:17;101651.03;;;19.16;27.00
80139;BME280;69467;59.842;17.604;2023-05-10T10:16:43;101640.09;;;19.44;26.72
80139;BME280;69467;59.842;17.604;2023-05-10T10:19:08;101636.56;;;19.38;26.67
80139;BME280;69467;59.842;17.604;2023-05-10T10:21:34;101644.59;;;19.59;26.38
80139;BME280;69467;59.842;17.604;2023-05-10T10:23:59;101640.75;;;19.74;26.70
80139;BME280;69467;59.842;17.604;2023-05-10T10:26:25;101639.84;;;19.98;26.65
80139;BME280;69467;59.842;17.604;2023-05-10T10:29:00;101640.59;;;20.36;26.58
80139;BME280;69467;59.842;17.604;2023-05-10T10:31:39;101646.84;;;19.95;25.60
80139;BME280;69467;59.842;17.604;2023-05-10T10:34:07;101639.66;;;19.94;26.09
80139;BME280;69467;59.842;17.604;2023-05-10T10:36:53;101662.84;;;19.65;26.50
80139;BME280;69467;59.842;17.604;2023-05-10T10:39:20;101633.78;;;19.95;27.10
80139;BME280;69467;59.842;17.604;2023-05-10T10:41:53;101641.81;;;19.97;26.32
80139;BME280;69467;59.842;17.604;2023-05-10T10:50:13;101640.56;;;20.22;25.93
80139;BME280;69467;59.842;17.604;2023-05-10T10:52:40;101622.78;;;20.37;25.08
80139;BME280;69467;59.842;17.604;2023-05-10T10:55:20;101610.41;;;20.43;26.16
80139;BME280;69467;59.842;17.604;2023-05-10T10:57:54;101626.19;;;20.62;24.91
80139;BME280;69467;59.842;17.604;2023-05-10T11:00:33;101618.94;;;20.33;25.60
80139;BME280;69467;59.842;17.604;2023-05-10T11:03:09;101625.59;;;19.85;24.92
80139;BME280;69467;59.842;17.604;2023-05-10T11:05:43;101611.31;;;20.25;25.85
80139;BME280;69467;59.842;17.604;2023-05-10T11:08:17;101613.47;;;20.42;24.94
80139;BME280;69467;59.842;17.604;2023-05-10T11:11:09;101609.91;;;20.08;25.32
80139;BME280;69467;59.842;17.604;2023-05-10T11:13:46;101612.50;;;20.66;25.29
80139;BME280;69467;59.842;17.604;2023-05-10T11:19:02;101614.19;;;21.17;25.02
80139;BME280;69467;59.842;17.604;2023-05-10T11:21:29;101619.06;;;19.76;24.75
80139;BME280;69467;59.842;17.604;2023-05-10T11:23:56;101625.03;;;20.02;25.20
80139;BME280;69467;59.842;17.604;2023-05-10T11:26:34;101590.50;;;20.36;24.82
80139;BME280;69467;59.842;17.604;2023-05-10T11:28:59;101610.34;;;20.16;24.89
80139;BME280;69467;59.842;17.604;2023-05-10T11:31:27;101600.25;;;20.20;24.99
80139;BME280;69467;59.842;17.604;2023-05-10T11:33:55;101601.78;;;20.12;24.56
80139;BME280;69467;59.842;17.604;2023-05-10T11:36:25;101602.69;;;19.74;24.85
80139;BME280;69467;59.842;17.604;2023-05-10T11:38:51;101599.47;;;19.86;24.97
80139;BME280;69467;59.842;17.604;2023-05-10T11:41:17;101601.59;;;20.08;24.54
80139;BME280;69467;59.842;17.604;2023-05-10T11:43:46;101598.38;;;20.01;24.59
80139;BME280;69467;59.842;17.604;2023-05-10T11:46:12;101599.16;;;19.69;25.24
80139;BME280;69467;59.842;17.604;2023-05-10T11:48:39;101605.78;;;19.92;24.69
80139;BME280;69467;59.842;17.604;2023-05-10T11:51:06;101608.13;;;19.46;24.16
80139;BME280;69467;59.842;17.604;2023-05-10T11:53:32;101597.59;;;19.82;25.17
80139;BME280;69467;59.842;17.604;2023-05-10T11:56:11;101614.09;;;19.92;24.92
80139;BME280;69467;59.842;17.604;2023-05-10T11:58:37;101597.47;;;20.06;24.50
80139;BME280;69467;59.842;17.604;2023-05-10T12:01:05;101602.63;;;20.73;24.29
80139;BME280;69467;59.842;17.604;2023-05-10T12:03:32;101591.34;;;20.65;23.87
80139;BME280;69467;59.842;17.604;2023-05-10T12:05:58;101595.97;;;20.55;24.05
80139;BME280;69467;59.842;17.604;2023-05-10T12:08:26;101591.47;;;19.99;23.93
80139;BME280;69467;59.842;17.604;2023-05-10T12:10:52;101630.88;;;19.87;24.01
80139;BME280;69467;59.842;17.604;2023-05-10T12:13:19;101596.41;;;19.88;24.51
80139;BME280;69467;59.842;17.604;2023-05-10T12:15:45;101596.94;;;20.04;24.38
80139;BME280;69467;59.842;17.604;2023-05-10T12:18:14;101629.66;;;19.93;24.09
80139;BME280;69467;59.842;17.604;2023-05-10T12:20:40;101599.97;;;20.21;23.92
80139;BME280;69467;59.842;17.604;2023-05-10T12:23:08;101611.22;;;19.97;24.39
80139;BME280;69467;59.842;17.604;2023-05-10T12:25:35;101593.47;;;20.26;23.74
80139;BME280;69467;59.842;17.604;2023-05-10T12:28:06;101607.31;;;20.45;23.86
80139;BME280;69467;59.842;17.604;2023-05-10T12:30:33;101598.41;;;19.63;24.06
80139;BME280;69467;59.842;17.604;2023-05-10T12:33:10;101590.22;;;19.72;23.94
80139;BME280;69467;59.842;17.604;2023-05-10T12:35:49;101595.78;;;19.72;23.99
80139;BME280;69467;59.842;17.604;2023-05-10T12:38:34;101598.72;;;19.81;24.20
80139;BME280;69467;59.842;17.604;2023-05-10T12:41:08;101616.34;;;20.23;23.87
80139;BME280;69467;59.842;17.604;2023-05-10T12:43:34;101614.38;;;20.23;24.17
80139;BME280;69467;59.842;17.604;2023-05-10T12:46:11;101607.25;;;20.03;23.69
80139;BME280;69467;59.842;17.604;2023-05-10T12:48:37;101606.66;;;20.06;23.83
80139;BME280;69467;59.842;17.604;2023-05-10T12:51:04;101619.03;;;20.28;24.19
80139;BME280;69467;59.842;17.604;2023-05-10T12:53:30;101617.38;;;20.27;24.66
80139;BME280;69467;59.842;17.604;2023-05-10T12:55:56;101599.13;;;20.21;24.27
80139;BME280;69467;59.842;17.604;2023-05-10T12:58:21;101605.97;;;19.76;24.02
80139;BME280;69467;59.842;17.604;2023-05-10T13:00:47;101595.72;;;19.77;24.12
80139;BME280;69467;59.842;17.604;2023-05-10T13:03:12;101603.31;;;20.04;23.85
80139;BME280;69467;59.842;17.604;2023-05-10T13:05:38;101606.00;;;19.95;24.03
80139;BME280;69467;59.842;17.604;2023-05-10T13:08:03;101601.66;;;19.89;23.81